Seymour Johnson Air Force Base
KGSB : rendu visible

Aérodrome :











RETROUVEZ-NOUS SUR...

 
LOGIN :

S'inscrire | Disclaimer

   EN    FR    IT 

 









Légende :    VFR   VFR Marginal   IFR   IFR Intensif   IFR Très Intensif
Visi : 
Plafond : 
>= 8 km
>= 3000ft
5 à 8 km
1000 à 3000 ft
1500m à 5 km
500 à 1000 ft
800 à 1500m
200 à 500 ft
< 800m
< 200 ft
Symboles :   Orages  Brouillard  Fortes neiges  Fortes précipitations  Vent > 20 kt






- Altitude de l'aérodrome : 109 ft


KGSB - Seymour Johnson Air Force Base

DERNIER METAR :
  • 120956Z AUTO 00000KT 10SM OVC160 13/08 A2990 RMK AO2 SLP128 T01300079 $

METARs EXPIRÉS :
  • 120856Z AUTO 00000KT 10SM OVC160 14/08 A2991 RMK AO2 SLP131 60000 T01400077 57019 $
  • 120756Z AUTO 00000KT 10SM BKN160 BKN210 13/07 A2993 RMK AO2 RAB17E26 SLP138 P0000 T01320072 $

TAF TAF KGSB
Valide du 12 à 05h jusqu'au 13 à 11h UTC


120500Z 1205/1311 22007KT 9999 SCT250 QNH2995INS
BECMG 1208/1209 24010KT 9999 SCT140 BKN250 WS010/24030KT QNH2991INS
BECMG 1211/1212 26010G15KT 9999 SCT025 BKN050 WS020/24030KT 620802 QNH2990INS
BECMG 1214/1215 30010G18KT 9999 VCSH BKN025 630802 QNH2989INS
TEMPO 1218/1224 35012G20KT 8000 -SHRA SCT007 BKN010 640802
BECMG 1303/1304 33010KT 9999 NSW SKC QNH3015INS TX14/1215Z TNM01/1304Z LAST NO AMDS AFT 1205 NEXT 1212



MET'MAP, la Météo Aéronautique d'un coup d'oeil ! - Copyright ORBIFLY Décembre 2007 - Disclaimer

ORBIFLY MET'MAP TEAM :

Programmation & Développement : Alexandra Zaïnal
Conception & Développement : Baudouin d'Aumeries
Co-Programmation & Développement : Marc-Olivier Méhu
Soutien technique & logistique : Manuel Goepfert

Contact : metmap@orbifly.com




SOURCES & CREDITS :

   NOAA       Earth
Advisory